sensor_id;sensor_type;location;lat;lon;timestamp;P1;durP1;ratioP1;P2;durP2;ratioP2
23402;SDS011;11874;48.228;11.684;2022-09-01T00:02:28;15.27;;;13.68;;
23402;SDS011;11874;48.228;11.684;2022-09-01T00:04:56;17.15;;;13.90;;
23402;SDS011;11874;48.228;11.684;2022-09-01T00:07:24;14.90;;;13.25;;
23402;SDS011;11874;48.228;11.684;2022-09-01T00:09:55;15.70;;;12.50;;
23402;SDS011;11874;48.228;11.684;2022-09-01T00:12:23;16.33;;;13.95;;
23402;SDS011;11874;48.228;11.684;2022-09-01T00:14:51;14.10;;;12.65;;
23402;SDS011;11874;48.228;11.684;2022-09-01T00:17:21;18.10;;;14.18;;
23402;SDS011;11874;48.228;11.684;2022-09-01T00:19:49;16.23;;;14.45;;
23402;SDS011;11874;48.228;11.684;2022-09-01T00:22:17;19.40;;;14.95;;
23402;SDS011;11874;48.228;11.684;2022-09-01T00:24:45;17.55;;;13.55;;
23402;SDS011;11874;48.228;11.684;2022-09-01T00:27:13;17.60;;;14.65;;
23402;SDS011;11874;48.228;11.684;2022-09-01T00:29:40;18.77;;;14.88;;
23402;SDS011;11874;48.228;11.684;2022-09-01T00:32:09;18.00;;;14.85;;
23402;SDS011;11874;48.228;11.684;2022-09-01T00:34:39;19.30;;;14.98;;
23402;SDS011;11874;48.228;11.684;2022-09-01T00:37:07;21.27;;;17.83;;
23402;SDS011;11874;48.228;11.684;2022-09-01T00:39:34;20.13;;;17.85;;
23402;SDS011;11874;48.228;11.684;2022-09-01T00:42:02;20.30;;;17.30;;
23402;SDS011;11874;48.228;11.684;2022-09-01T00:44:31;20.13;;;16.67;;
23402;SDS011;11874;48.228;11.684;2022-09-01T00:46:59;21.90;;;18.35;;
23402;SDS011;11874;48.228;11.684;2022-09-01T00:49:29;19.77;;;17.63;;
23402;SDS011;11874;48.228;11.684;2022-09-01T00:52:03;19.98;;;17.88;;
23402;SDS011;11874;48.228;11.684;2022-09-01T00:54:35;22.75;;;19.38;;
23402;SDS011;11874;48.228;11.684;2022-09-01T00:57:10;22.25;;;19.05;;
23402;SDS011;11874;48.228;11.684;2022-09-01T00:59:41;23.52;;;18.95;;
23402;SDS011;11874;48.228;11.684;2022-09-01T01:02:13;27.63;;;20.00;;
23402;SDS011;11874;48.228;11.684;2022-09-01T01:04:42;24.05;;;20.10;;
23402;SDS011;11874;48.228;11.684;2022-09-01T01:07:12;22.30;;;19.63;;
23402;SDS011;11874;48.228;11.684;2022-09-01T01:09:42;23.55;;;19.52;;
23402;SDS011;11874;48.228;11.684;2022-09-01T01:12:12;25.67;;;19.55;;
23402;SDS011;11874;48.228;11.684;2022-09-01T01:14:44;23.50;;;20.83;;
23402;SDS011;11874;48.228;11.684;2022-09-01T01:17:13;23.10;;;20.05;;
23402;SDS011;11874;48.228;11.684;2022-09-01T01:19:41;23.85;;;19.90;;
23402;SDS011;11874;48.228;11.684;2022-09-01T01:22:33;27.88;;;20.85;;
23402;SDS011;11874;48.228;11.684;2022-09-01T01:25:27;23.77;;;20.58;;
23402;SDS011;11874;48.228;11.684;2022-09-01T01:28:02;29.65;;;21.48;;
23402;SDS011;11874;48.228;11.684;2022-09-01T01:30:32;27.88;;;23.17;;
23402;SDS011;11874;48.228;11.684;2022-09-01T01:33:00;28.33;;;21.92;;
23402;SDS011;11874;48.228;11.684;2022-09-01T01:35:29;24.30;;;20.70;;
23402;SDS011;11874;48.228;11.684;2022-09-01T01:37:59;28.73;;;22.48;;
23402;SDS011;11874;48.228;11.684;2022-09-01T01:40:29;24.50;;;20.23;;
23402;SDS011;11874;48.228;11.684;2022-09-01T01:42:57;25.35;;;20.75;;
23402;SDS011;11874;48.228;11.684;2022-09-01T01:45:27;24.42;;;21.25;;
23402;SDS011;11874;48.228;11.684;2022-09-01T01:47:56;26.42;;;21.38;;
23402;SDS011;11874;48.228;11.684;2022-09-01T01:50:25;24.45;;;20.55;;
23402;SDS011;11874;48.228;11.684;2022-09-01T01:53:01;23.48;;;19.42;;
23402;SDS011;11874;48.228;11.684;2022-09-01T01:55:38;23.50;;;20.80;;
23402;SDS011;11874;48.228;11.684;2022-09-01T01:58:06;25.58;;;21.23;;
23402;SDS011;11874;48.228;11.684;2022-09-01T02:00:37;26.63;;;20.90;;
23402;SDS011;11874;48.228;11.684;2022-09-01T02:03:08;23.13;;;20.30;;
23402;SDS011;11874;48.228;11.684;2022-09-01T02:05:38;24.15;;;20.23;;
23402;SDS011;11874;48.228;11.684;2022-09-01T02:08:07;23.98;;;20.90;;
23402;SDS011;11874;48.228;11.684;2022-09-01T02:10:39;24.73;;;20.30;;
23402;SDS011;11874;48.228;11.684;2022-09-01T02:13:10;24.50;;;20.20;;
23402;SDS011;11874;48.228;11.684;2022-09-01T02:15:43;24.10;;;19.55;;
23402;SDS011;11874;48.228;11.684;2022-09-01T02:18:13;23.73;;;19.98;;
23402;SDS011;11874;48.228;11.684;2022-09-01T02:20:44;23.38;;;19.27;;
23402;SDS011;11874;48.228;11.684;2022-09-01T02:23:14;25.70;;;20.33;;
23402;SDS011;11874;48.228;11.684;2022-09-01T02:25:46;24.40;;;20.30;;
23402;SDS011;11874;48.228;11.684;2022-09-01T02:28:35;24.45;;;19.45;;
23402;SDS011;11874;48.228;11.684;2022-09-01T02:31:08;22.90;;;19.30;;
23402;SDS011;11874;48.228;11.684;2022-09-01T02:33:37;24.48;;;20.05;;
23402;SDS011;11874;48.228;11.684;2022-09-01T02:36:07;25.73;;;18.60;;
23402;SDS011;11874;48.228;11.684;2022-09-01T02:38:39;25.40;;;21.50;;
23402;SDS011;11874;48.228;11.684;2022-09-01T02:41:16;29.08;;;23.77;;
23402;SDS011;11874;48.228;11.684;2022-09-01T02:43:46;25.40;;;21.25;;
23402;SDS011;11874;48.228;11.684;2022-09-01T02:46:14;22.50;;;20.05;;
23402;SDS011;11874;48.228;11.684;2022-09-01T02:48:43;21.38;;;18.88;;
23402;SDS011;11874;48.228;11.684;2022-09-01T02:51:15;25.45;;;19.33;;
23402;SDS011;11874;48.228;11.684;2022-09-01T02:53:45;24.60;;;19.92;;
23402;SDS011;11874;48.228;11.684;2022-09-01T02:56:19;24.63;;;20.10;;
23402;SDS011;11874;48.228;11.684;2022-09-01T02:58:50;26.52;;;20.20;;
23402;SDS011;11874;48.228;11.684;2022-09-01T03:01:20;22.40;;;18.95;;
23402;SDS011;11874;48.228;11.684;2022-09-01T03:03:51;27.10;;;20.13;;
23402;SDS011;11874;48.228;11.684;2022-09-01T03:06:20;24.50;;;19.98;;
23402;SDS011;11874;48.228;11.684;2022-09-01T03:08:49;25.05;;;20.15;;
23402;SDS011;11874;48.228;11.684;2022-09-01T03:11:19;26.75;;;21.30;;
23402;SDS011;11874;48.228;11.684;2022-09-01T03:13:49;23.73;;;19.70;;
23402;SDS011;11874;48.228;11.684;2022-09-01T03:16:17;24.88;;;20.13;;
23402;SDS011;11874;48.228;11.684;2022-09-01T03:18:45;25.67;;;20.83;;
23402;SDS011;11874;48.228;11.684;2022-09-01T03:21:14;25.73;;;20.50;;
23402;SDS011;11874;48.228;11.684;2022-09-01T03:23:43;26.15;;;20.75;;
23402;SDS011;11874;48.228;11.684;2022-09-01T03:26:12;25.35;;;20.88;;
23402;SDS011;11874;48.228;11.684;2022-09-01T03:28:45;23.42;;;20.95;;
23402;SDS011;11874;48.228;11.684;2022-09-01T03:31:13;26.17;;;20.90;;
23402;SDS011;11874;48.228;11.684;2022-09-01T03:33:42;23.08;;;20.40;;
23402;SDS011;11874;48.228;11.684;2022-09-01T03:36:10;25.05;;;19.95;;
23402;SDS011;11874;48.228;11.684;2022-09-01T03:38:44;27.27;;;20.05;;
23402;SDS011;11874;48.228;11.684;2022-09-01T03:41:14;23.77;;;19.67;;
23402;SDS011;11874;48.228;11.684;2022-09-01T03:43:45;25.38;;;21.48;;
23402;SDS011;11874;48.228;11.684;2022-09-01T03:46:14;23.85;;;20.95;;
23402;SDS011;11874;48.228;11.684;2022-09-01T03:48:47;26.13;;;20.63;;
23402;SDS011;11874;48.228;11.684;2022-09-01T03:51:16;24.30;;;20.05;;
23402;SDS011;11874;48.228;11.684;2022-09-01T03:53:46;24.90;;;20.80;;
23402;SDS011;11874;48.228;11.684;2022-09-01T03:56:14;26.85;;;21.70;;
23402;SDS011;11874;48.228;11.684;2022-09-01T03:58:42;27.50;;;22.08;;
23402;SDS011;11874;48.228;11.684;2022-09-01T04:01:13;25.88;;;20.65;;
23402;SDS011;11874;48.228;11.684;2022-09-01T04:03:42;25.92;;;21.08;;
23402;SDS011;11874;48.228;11.684;2022-09-01T04:06:14;25.75;;;21.15;;
23402;SDS011;11874;48.228;11.684;2022-09-01T04:08:46;24.33;;;19.73;;
23402;SDS011;11874;48.228;11.684;2022-09-01T04:11:15;24.65;;;20.85;;
23402;SDS011;11874;48.228;11.684;2022-09-01T04:13:48;26.15;;;20.45;;
23402;SDS011;11874;48.228;11.684;2022-09-01T04:16:19;23.58;;;19.25;;
23402;SDS011;11874;48.228;11.684;2022-09-01T04:19:06;22.30;;;19.33;;
23402;SDS011;11874;48.228;11.684;2022-09-01T04:21:41;26.70;;;19.98;;
23402;SDS011;11874;48.228;11.684;2022-09-01T04:24:10;28.17;;;21.35;;
23402;SDS011;11874;48.228;11.684;2022-09-01T04:26:40;25.08;;;20.42;;
23402;SDS011;11874;48.228;11.684;2022-09-01T04:29:11;24.98;;;20.55;;
23402;SDS011;11874;48.228;11.684;2022-09-01T04:31:40;25.10;;;20.92;;
23402;SDS011;11874;48.228;11.684;2022-09-01T04:34:08;24.65;;;20.48;;
23402;SDS011;11874;48.228;11.684;2022-09-01T04:36:38;24.23;;;19.98;;
23402;SDS011;11874;48.228;11.684;2022-09-01T04:39:09;26.23;;;20.70;;
23402;SDS011;11874;48.228;11.684;2022-09-01T04:41:39;23.83;;;20.48;;
23402;SDS011;11874;48.228;11.684;2022-09-01T04:44:11;26.02;;;22.23;;
23402;SDS011;11874;48.228;11.684;2022-09-01T04:46:45;23.52;;;20.38;;
23402;SDS011;11874;48.228;11.684;2022-09-01T04:49:16;25.92;;;20.08;;
23402;SDS011;11874;48.228;11.684;2022-09-01T04:51:48;25.92;;;20.70;;
23402;SDS011;11874;48.228;11.684;2022-09-01T04:54:19;25.63;;;20.70;;
23402;SDS011;11874;48.228;11.684;2022-09-01T04:56:49;26.13;;;20.85;;
23402;SDS011;11874;48.228;11.684;2022-09-01T04:59:18;28.00;;;21.33;;
23402;SDS011;11874;48.228;11.684;2022-09-01T05:01:49;24.38;;;20.40;;
23402;SDS011;11874;48.228;11.684;2022-09-01T05:04:21;24.38;;;19.60;;
23402;SDS011;11874;48.228;11.684;2022-09-01T05:06:53;27.27;;;20.98;;
23402;SDS011;11874;48.228;11.684;2022-09-01T05:11:54;22.80;;;18.95;;
23402;SDS011;11874;48.228;11.684;2022-09-01T05:14:23;24.98;;;20.55;;
23402;SDS011;11874;48.228;11.684;2022-09-01T05:16:56;26.10;;;21.38;;
23402;SDS011;11874;48.228;11.684;2022-09-01T05:19:25;27.20;;;21.42;;
23402;SDS011;11874;48.228;11.684;2022-09-01T05:21:56;22.95;;;20.05;;
23402;SDS011;11874;48.228;11.684;2022-09-01T05:24:25;23.92;;;20.10;;
23402;SDS011;11874;48.228;11.684;2022-09-01T05:26:55;26.55;;;20.98;;
23402;SDS011;11874;48.228;11.684;2022-09-01T05:29:25;22.58;;;19.33;;
23402;SDS011;11874;48.228;11.684;2022-09-01T05:31:56;22.38;;;18.77;;
23402;SDS011;11874;48.228;11.684;2022-09-01T05:34:25;22.58;;;18.67;;
23402;SDS011;11874;48.228;11.684;2022-09-01T05:36:55;22.08;;;18.90;;
23402;SDS011;11874;48.228;11.684;2022-09-01T05:39:25;28.20;;;19.83;;
23402;SDS011;11874;48.228;11.684;2022-09-01T05:41:53;23.17;;;17.63;;
23402;SDS011;11874;48.228;11.684;2022-09-01T05:44:22;22.65;;;17.58;;
23402;SDS011;11874;48.228;11.684;2022-09-01T05:46:50;21.92;;;17.60;;
23402;SDS011;11874;48.228;11.684;2022-09-01T05:49:22;22.23;;;18.52;;
23402;SDS011;11874;48.228;11.684;2022-09-01T05:51:51;23.02;;;17.88;;
23402;SDS011;11874;48.228;11.684;2022-09-01T05:54:24;22.30;;;18.30;;
23402;SDS011;11874;48.228;11.684;2022-09-01T05:56:54;19.90;;;17.48;;
23402;SDS011;11874;48.228;11.684;2022-09-01T05:59:42;23.63;;;18.67;;
23402;SDS011;11874;48.228;11.684;2022-09-01T06:02:19;20.13;;;16.73;;
23402;SDS011;11874;48.228;11.684;2022-09-01T06:04:49;20.38;;;16.52;;
23402;SDS011;11874;48.228;11.684;2022-09-01T06:07:20;20.63;;;16.55;;
23402;SDS011;11874;48.228;11.684;2022-09-01T06:09:51;20.13;;;16.40;;
23402;SDS011;11874;48.228;11.684;2022-09-01T06:12:19;21.15;;;18.63;;
23402;SDS011;11874;48.228;11.684;2022-09-01T06:14:49;18.33;;;16.40;;
23402;SDS011;11874;48.228;11.684;2022-09-01T06:17:20;20.95;;;16.67;;
23402;SDS011;11874;48.228;11.684;2022-09-01T06:19:52;20.15;;;17.38;;
23402;SDS011;11874;48.228;11.684;2022-09-01T06:22:21;18.98;;;16.98;;
23402;SDS011;11874;48.228;11.684;2022-09-01T06:24:50;18.88;;;16.38;;
23402;SDS011;11874;48.228;11.684;2022-09-01T06:27:27;21.50;;;15.68;;
23402;SDS011;11874;48.228;11.684;2022-09-01T06:29:55;18.02;;;14.75;;
23402;SDS011;11874;48.228;11.684;2022-09-01T06:32:23;18.38;;;14.57;;
23402;SDS011;11874;48.228;11.684;2022-09-01T06:34:53;16.17;;;14.00;;
23402;SDS011;11874;48.228;11.684;2022-09-01T06:37:23;18.52;;;14.48;;
23402;SDS011;11874;48.228;11.684;2022-09-01T06:39:51;15.65;;;13.70;;
23402;SDS011;11874;48.228;11.684;2022-09-01T06:42:20;16.98;;;14.10;;
23402;SDS011;11874;48.228;11.684;2022-09-01T06:44:48;18.23;;;15.18;;
23402;SDS011;11874;48.228;11.684;2022-09-01T06:47:17;17.42;;;14.23;;
23402;SDS011;11874;48.228;11.684;2022-09-01T06:49:45;15.88;;;14.27;;
23402;SDS011;11874;48.228;11.684;2022-09-01T06:52:14;19.45;;;14.88;;
23402;SDS011;11874;48.228;11.684;2022-09-01T06:54:43;19.85;;;14.65;;
23402;SDS011;11874;48.228;11.684;2022-09-01T06:57:11;18.08;;;15.43;;
23402;SDS011;11874;48.228;11.684;2022-09-01T06:59:58;17.05;;;14.95;;
23402;SDS011;11874;48.228;11.684;2022-09-01T07:02:32;17.63;;;15.20;;
23402;SDS011;11874;48.228;11.684;2022-09-01T07:05:00;16.55;;;14.60;;
23402;SDS011;11874;48.228;11.684;2022-09-01T07:07:30;14.40;;;12.30;;
23402;SDS011;11874;48.228;11.684;2022-09-01T07:10:19;14.85;;;13.32;;
23402;SDS011;11874;48.228;11.684;2022-09-01T07:12:48;15.00;;;13.35;;
23402;SDS011;11874;48.228;11.684;2022-09-01T07:15:32;14.85;;;12.55;;
23402;SDS011;11874;48.228;11.684;2022-09-01T07:18:21;16.13;;;14.02;;
23402;SDS011;11874;48.228;11.684;2022-09-01T07:20:51;15.02;;;13.02;;
23402;SDS011;11874;48.228;11.684;2022-09-01T07:23:41;16.13;;;14.52;;
23402;SDS011;11874;48.228;11.684;2022-09-01T07:26:30;15.07;;;13.57;;
23402;SDS011;11874;48.228;11.684;2022-09-01T07:29:00;14.30;;;12.80;;
23402;SDS011;11874;48.228;11.684;2022-09-01T07:31:32;21.17;;;14.02;;
23402;SDS011;11874;48.228;11.684;2022-09-01T07:34:22;18.55;;;15.27;;
23402;SDS011;11874;48.228;11.684;2022-09-01T07:37:11;17.00;;;13.52;;
23402;SDS011;11874;48.228;11.684;2022-09-01T07:40:01;15.75;;;14.07;;
23402;SDS011;11874;48.228;11.684;2022-09-01T07:42:52;15.85;;;13.35;;
23402;SDS011;11874;48.228;11.684;2022-09-01T07:45:40;16.17;;;14.48;;
23402;SDS011;11874;48.228;11.684;2022-09-01T07:48:24;14.05;;;12.65;;
23402;SDS011;11874;48.228;11.684;2022-09-01T07:51:14;15.25;;;13.60;;
23402;SDS011;11874;48.228;11.684;2022-09-01T07:54:02;16.58;;;14.77;;
23402;SDS011;11874;48.228;11.684;2022-09-01T07:56:31;16.75;;;13.05;;
23402;SDS011;11874;48.228;11.684;2022-09-01T07:59:05;15.02;;;12.07;;
23402;SDS011;11874;48.228;11.684;2022-09-01T08:01:40;13.43;;;12.13;;
23402;SDS011;11874;48.228;11.684;2022-09-01T08:04:09;13.32;;;11.75;;
23402;SDS011;11874;48.228;11.684;2022-09-01T08:06:36;15.63;;;12.25;;
23402;SDS011;11874;48.228;11.684;2022-09-01T08:09:06;13.25;;;11.68;;
23402;SDS011;11874;48.228;11.684;2022-09-01T08:11:38;12.02;;;10.70;;
23402;SDS011;11874;48.228;11.684;2022-09-01T08:14:27;13.30;;;10.00;;
23402;SDS011;11874;48.228;11.684;2022-09-01T08:16:59;12.07;;;9.10;;
23402;SDS011;11874;48.228;11.684;2022-09-01T08:19:42;12.02;;;10.43;;
23402;SDS011;11874;48.228;11.684;2022-09-01T08:22:12;10.63;;;9.52;;
23402;SDS011;11874;48.228;11.684;2022-09-01T08:24:40;13.27;;;9.60;;
23402;SDS011;11874;48.228;11.684;2022-09-01T08:27:09;13.48;;;10.68;;
23402;SDS011;11874;48.228;11.684;2022-09-01T08:29:39;12.15;;;10.57;;
23402;SDS011;11874;48.228;11.684;2022-09-01T08:32:07;10.30;;;9.30;;
23402;SDS011;11874;48.228;11.684;2022-09-01T08:34:36;12.45;;;11.05;;
23402;SDS011;11874;48.228;11.684;2022-09-01T08:37:04;12.30;;;9.93;;
23402;SDS011;11874;48.228;11.684;2022-09-01T08:39:32;10.65;;;9.55;;
23402;SDS011;11874;48.228;11.684;2022-09-01T08:42:02;14.05;;;10.10;;
23402;SDS011;11874;48.228;11.684;2022-09-01T08:44:40;11.98;;;10.10;;
23402;SDS011;11874;48.228;11.684;2022-09-01T08:47:17;11.85;;;10.48;;
23402;SDS011;11874;48.228;11.684;2022-09-01T08:50:05;10.52;;;9.43;;
23402;SDS011;11874;48.228;11.684;2022-09-01T08:52:34;10.20;;;8.95;;
23402;SDS011;11874;48.228;11.684;2022-09-01T08:57:37;9.73;;;8.65;;
23402;SDS011;11874;48.228;11.684;2022-09-01T09:00:09;10.05;;;9.00;;
23402;SDS011;11874;48.228;11.684;2022-09-01T09:02:42;12.63;;;8.93;;
23402;SDS011;11874;48.228;11.684;2022-09-01T09:05:22;9.70;;;8.52;;
23402;SDS011;11874;48.228;11.684;2022-09-01T09:08:03;9.38;;;7.85;;
23402;SDS011;11874;48.228;11.684;2022-09-01T09:10:46;8.55;;;7.50;;
23402;SDS011;11874;48.228;11.684;2022-09-01T09:13:22;12.65;;;8.30;;
23402;SDS011;11874;48.228;11.684;2022-09-01T09:15:58;9.00;;;7.90;;
23402;SDS011;11874;48.228;11.684;2022-09-01T09:18:35;8.57;;;7.68;;
23402;SDS011;11874;48.228;11.684;2022-09-01T09:21:21;8.65;;;7.45;;
23402;SDS011;11874;48.228;11.684;2022-09-01T09:23:54;8.10;;;7.22;;
23402;SDS011;11874;48.228;11.684;2022-09-01T09:26:26;7.15;;;6.22;;
23402;SDS011;11874;48.228;11.684;2022-09-01T09:29:07;7.80;;;6.03;;
23402;SDS011;11874;48.228;11.684;2022-09-01T09:31:37;6.00;;;5.43;;
23402;SDS011;11874;48.228;11.684;2022-09-01T09:34:16;6.82;;;5.88;;
23402;SDS011;11874;48.228;11.684;2022-09-01T09:36:55;6.68;;;5.38;;
23402;SDS011;11874;48.228;11.684;2022-09-01T09:39:22;5.80;;;5.20;;
23402;SDS011;11874;48.228;11.684;2022-09-01T09:42:00;6.05;;;5.45;;
23402;SDS011;11874;48.228;11.684;2022-09-01T09:44:38;7.00;;;5.07;;
23402;SDS011;11874;48.228;11.684;2022-09-01T09:47:10;4.97;;;4.50;;
23402;SDS011;11874;48.228;11.684;2022-09-01T09:50:11;5.15;;;4.65;;
23402;SDS011;11874;48.228;11.684;2022-09-01T09:52:51;6.78;;;5.13;;
23402;SDS011;11874;48.228;11.684;2022-09-01T09:55:35;4.95;;;4.20;;
23402;SDS011;11874;48.228;11.684;2022-09-01T09:58:08;5.95;;;4.90;;
23402;SDS011;11874;48.228;11.684;2022-09-01T10:00:37;7.07;;;5.32;;
23402;SDS011;11874;48.228;11.684;2022-09-01T10:03:08;13.15;;;6.40;;
23402;SDS011;11874;48.228;11.684;2022-09-01T10:05:40;7.68;;;4.40;;
23402;SDS011;11874;48.228;11.684;2022-09-01T10:08:10;10.85;;;5.57;;
23402;SDS011;11874;48.228;11.684;2022-09-01T10:10:44;6.85;;;4.68;;
23402;SDS011;11874;48.228;11.684;2022-09-01T10:13:24;6.95;;;4.50;;
23402;SDS011;11874;48.228;11.684;2022-09-01T10:15:59;7.78;;;5.05;;
23402;SDS011;11874;48.228;11.684;2022-09-01T10:18:35;7.43;;;4.20;;
23402;SDS011;11874;48.228;11.684;2022-09-01T10:21:07;5.68;;;3.55;;
23402;SDS011;11874;48.228;11.684;2022-09-01T10:23:39;6.13;;;3.83;;
23402;SDS011;11874;48.228;11.684;2022-09-01T10:26:10;5.55;;;3.60;;
23402;SDS011;11874;48.228;11.684;2022-09-01T10:28:45;5.88;;;3.72;;
23402;SDS011;11874;48.228;11.684;2022-09-01T10:31:18;4.75;;;3.42;;
23402;SDS011;11874;48.228;11.684;2022-09-01T10:33:49;4.70;;;3.33;;
23402;SDS011;11874;48.228;11.684;2022-09-01T10:36:17;4.22;;;3.08;;
23402;SDS011;11874;48.228;11.684;2022-09-01T10:38:49;3.67;;;2.75;;
23402;SDS011;11874;48.228;11.684;2022-09-01T10:41:43;6.70;;;3.55;;
23402;SDS011;11874;48.228;11.684;2022-09-01T10:44:24;6.07;;;3.30;;
23402;SDS011;11874;48.228;11.684;2022-09-01T10:55:34;3.78;;;2.75;;
23402;SDS011;11874;48.228;11.684;2022-09-01T10:58:19;3.53;;;3.20;;
23402;SDS011;11874;48.228;11.684;2022-09-01T11:01:15;2.90;;;2.50;;
23402;SDS011;11874;48.228;11.684;2022-09-01T11:04:03;3.55;;;2.92;;
23402;SDS011;11874;48.228;11.684;2022-09-01T11:06:42;4.15;;;3.22;;
23402;SDS011;11874;48.228;11.684;2022-09-01T11:09:39;3.22;;;2.72;;
23402;SDS011;11874;48.228;11.684;2022-09-01T11:12:19;2.67;;;2.47;;
23402;SDS011;11874;48.228;11.684;2022-09-01T11:18:01;3.38;;;2.63;;
23402;SDS011;11874;48.228;11.684;2022-09-01T11:20:35;3.42;;;2.47;;
23402;SDS011;11874;48.228;11.684;2022-09-01T11:23:05;4.53;;;2.50;;
23402;SDS011;11874;48.228;11.684;2022-09-01T11:25:38;2.63;;;2.40;;
23402;SDS011;11874;48.228;11.684;2022-09-01T11:31:18;3.75;;;2.85;;
23402;SDS011;11874;48.228;11.684;2022-09-01T11:36:50;5.18;;;3.13;;
23402;SDS011;11874;48.228;11.684;2022-09-01T11:42:18;3.70;;;2.72;;
23402;SDS011;11874;48.228;11.684;2022-09-01T11:44:51;4.38;;;3.38;;
23402;SDS011;11874;48.228;11.684;2022-09-01T11:47:26;4.00;;;3.47;;
23402;SDS011;11874;48.228;11.684;2022-09-01T11:49:59;4.60;;;3.42;;
23402;SDS011;11874;48.228;11.684;2022-09-01T11:52:29;4.20;;;3.53;;
23402;SDS011;11874;48.228;11.684;2022-09-01T11:55:01;3.88;;;3.40;;
23402;SDS011;11874;48.228;11.684;2022-09-01T11:57:30;4.65;;;3.22;;
23402;SDS011;11874;48.228;11.684;2022-09-01T12:00:04;3.83;;;3.25;;
23402;SDS011;11874;48.228;11.684;2022-09-01T12:02:34;3.90;;;3.00;;
23402;SDS011;11874;48.228;11.684;2022-09-01T12:05:21;3.03;;;2.72;;
23402;SDS011;11874;48.228;11.684;2022-09-01T12:07:52;3.45;;;2.70;;
23402;SDS011;11874;48.228;11.684;2022-09-01T12:10:23;4.13;;;2.90;;
23402;SDS011;11874;48.228;11.684;2022-09-01T12:13:00;3.85;;;2.50;;
23402;SDS011;11874;48.228;11.684;2022-09-01T12:15:31;2.95;;;2.70;;
23402;SDS011;11874;48.228;11.684;2022-09-01T12:18:12;3.78;;;2.90;;
23402;SDS011;11874;48.228;11.684;2022-09-01T12:20:44;3.25;;;2.45;;
23402;SDS011;11874;48.228;11.684;2022-09-01T12:23:16;3.22;;;2.63;;
23402;SDS011;11874;48.228;11.684;2022-09-01T12:25:48;4.32;;;2.90;;
23402;SDS011;11874;48.228;11.684;2022-09-01T12:28:17;3.85;;;2.55;;
23402;SDS011;11874;48.228;11.684;2022-09-01T12:30:46;3.88;;;2.58;;
23402;SDS011;11874;48.228;11.684;2022-09-01T12:33:16;2.85;;;2.53;;
23402;SDS011;11874;48.228;11.684;2022-09-01T12:35:49;4.70;;;2.38;;
23402;SDS011;11874;48.228;11.684;2022-09-01T12:38:27;3.25;;;2.72;;
23402;SDS011;11874;48.228;11.684;2022-09-01T12:40:56;2.90;;;2.60;;
23402;SDS011;11874;48.228;11.684;2022-09-01T12:43:33;3.17;;;2.55;;
23402;SDS011;11874;48.228;11.684;2022-09-01T12:46:04;3.55;;;2.40;;
23402;SDS011;11874;48.228;11.684;2022-09-01T12:48:36;5.72;;;2.75;;
23402;SDS011;11874;48.228;11.684;2022-09-01T12:51:06;2.08;;;1.90;;
23402;SDS011;11874;48.228;11.684;2022-09-01T12:53:50;3.10;;;1.95;;
23402;SDS011;11874;48.228;11.684;2022-09-01T12:56:20;3.38;;;2.20;;
23402;SDS011;11874;48.228;11.684;2022-09-01T12:59:02;2.30;;;2.10;;
23402;SDS011;11874;48.228;11.684;2022-09-01T13:01:40;3.17;;;2.40;;
23402;SDS011;11874;48.228;11.684;2022-09-01T13:04:10;2.75;;;2.40;;
23402;SDS011;11874;48.228;11.684;2022-09-01T13:06:50;3.65;;;2.25;;
23402;SDS011;11874;48.228;11.684;2022-09-01T13:09:20;3.53;;;2.50;;
23402;SDS011;11874;48.228;11.684;2022-09-01T13:11:48;4.22;;;2.30;;
23402;SDS011;11874;48.228;11.684;2022-09-01T13:14:33;3.25;;;2.38;;
23402;SDS011;11874;48.228;11.684;2022-09-01T13:17:02;2.90;;;2.22;;
23402;SDS011;11874;48.228;11.684;2022-09-01T13:19:39;2.65;;;2.10;;
23402;SDS011;11874;48.228;11.684;2022-09-01T13:22:07;3.42;;;2.17;;
23402;SDS011;11874;48.228;11.684;2022-09-01T13:24:35;2.47;;;1.88;;
23402;SDS011;11874;48.228;11.684;2022-09-01T13:27:04;3.47;;;1.95;;
23402;SDS011;11874;48.228;11.684;2022-09-01T13:29:49;2.40;;;1.95;;
23402;SDS011;11874;48.228;11.684;2022-09-01T13:32:18;2.40;;;2.10;;
23402;SDS011;11874;48.228;11.684;2022-09-01T13:34:49;2.30;;;2.10;;
23402;SDS011;11874;48.228;11.684;2022-09-01T13:37:18;2.30;;;2.10;;
23402;SDS011;11874;48.228;11.684;2022-09-01T13:39:47;2.55;;;2.05;;
23402;SDS011;11874;48.228;11.684;2022-09-01T13:42:16;4.78;;;2.10;;
23402;SDS011;11874;48.228;11.684;2022-09-01T13:44:44;3.95;;;2.33;;
23402;SDS011;11874;48.228;11.684;2022-09-01T13:47:18;3.00;;;2.30;;
23402;SDS011;11874;48.228;11.684;2022-09-01T13:49:57;2.40;;;2.10;;
23402;SDS011;11874;48.228;11.684;2022-09-01T13:52:36;4.47;;;2.13;;
23402;SDS011;11874;48.228;11.684;2022-09-01T13:55:06;3.58;;;1.88;;
23402;SDS011;11874;48.228;11.684;2022-09-01T13:57:36;2.17;;;1.98;;
23402;SDS011;11874;48.228;11.684;2022-09-01T14:00:05;2.58;;;2.10;;
23402;SDS011;11874;48.228;11.684;2022-09-01T14:02:37;2.85;;;1.90;;
23402;SDS011;11874;48.228;11.684;2022-09-01T14:05:06;2.13;;;1.90;;
23402;SDS011;11874;48.228;11.684;2022-09-01T14:07:34;2.58;;;1.60;;
23402;SDS011;11874;48.228;11.684;2022-09-01T14:10:02;2.08;;;1.88;;
23402;SDS011;11874;48.228;11.684;2022-09-01T14:12:32;3.40;;;1.70;;
23402;SDS011;11874;48.228;11.684;2022-09-01T14:15:00;2.25;;;1.70;;
23402;SDS011;11874;48.228;11.684;2022-09-01T14:17:43;1.60;;;1.48;;
23402;SDS011;11874;48.228;11.684;2022-09-01T14:20:16;4.60;;;1.73;;
23402;SDS011;11874;48.228;11.684;2022-09-01T14:22:46;2.13;;;1.73;;
23402;SDS011;11874;48.228;11.684;2022-09-01T14:25:16;1.52;;;1.40;;
23402;SDS011;11874;48.228;11.684;2022-09-01T14:27:46;3.13;;;1.52;;
23402;SDS011;11874;48.228;11.684;2022-09-01T14:30:15;2.05;;;1.50;;
23402;SDS011;11874;48.228;11.684;2022-09-01T14:32:46;2.95;;;1.40;;
23402;SDS011;11874;48.228;11.684;2022-09-01T14:35:14;1.95;;;1.40;;
23402;SDS011;11874;48.228;11.684;2022-09-01T14:37:44;1.52;;;1.42;;
23402;SDS011;11874;48.228;11.684;2022-09-01T14:40:12;1.98;;;1.40;;
23402;SDS011;11874;48.228;11.684;2022-09-01T14:45:12;1.27;;;1.17;;
23402;SDS011;11874;48.228;11.684;2022-09-01T14:47:43;2.63;;;1.40;;
23402;SDS011;11874;48.228;11.684;2022-09-01T14:50:13;2.13;;;1.60;;
23402;SDS011;11874;48.228;11.684;2022-09-01T14:52:48;1.58;;;1.30;;
23402;SDS011;11874;48.228;11.684;2022-09-01T14:55:18;6.75;;;1.70;;
23402;SDS011;11874;48.228;11.684;2022-09-01T14:57:46;1.33;;;1.23;;
23402;SDS011;11874;48.228;11.684;2022-09-01T15:00:14;4.18;;;1.40;;
23402;SDS011;11874;48.228;11.684;2022-09-01T15:02:42;2.88;;;1.58;;
23402;SDS011;11874;48.228;11.684;2022-09-01T15:05:10;1.73;;;1.50;;
23402;SDS011;11874;48.228;11.684;2022-09-01T15:07:41;1.30;;;1.20;;
23402;SDS011;11874;48.228;11.684;2022-09-01T15:10:10;1.50;;;1.40;;
23402;SDS011;11874;48.228;11.684;2022-09-01T15:12:48;1.73;;;1.40;;
23402;SDS011;11874;48.228;11.684;2022-09-01T15:15:16;2.13;;;1.20;;
23402;SDS011;11874;48.228;11.684;2022-09-01T15:17:45;2.08;;;1.38;;
23402;SDS011;11874;48.228;11.684;2022-09-01T15:20:14;2.67;;;1.30;;